createdAt,value
2022-11-07T00:02:08.780Z,2.13
2022-11-07T00:04:37.914Z,3.00
2022-11-07T00:07:07.347Z,1.90
2022-11-07T00:09:35.642Z,1.45
2022-11-07T00:12:04.233Z,1.60
2022-11-07T00:14:32.527Z,2.00
2022-11-07T00:17:00.969Z,1.47
2022-11-07T00:19:29.173Z,2.33
2022-11-07T00:21:57.376Z,1.77
2022-11-07T00:24:25.455Z,1.33
2022-11-07T00:26:53.701Z,2.75
2022-11-07T00:29:22.104Z,1.93
2022-11-07T00:31:50.573Z,3.87
2022-11-07T00:34:18.626Z,2.60
2022-11-07T00:36:46.831Z,2.43
2022-11-07T00:39:15.029Z,1.42
2022-11-07T00:41:43.140Z,1.67
2022-11-07T00:44:11.222Z,1.63
2022-11-07T00:46:39.279Z,1.90
2022-11-07T00:49:07.506Z,3.28
2022-11-07T00:51:35.683Z,1.35
2022-11-07T00:54:05.468Z,3.08
2022-11-07T00:56:33.707Z,2.20
2022-11-07T00:59:02.118Z,3.83
2022-11-07T01:01:33.730Z,1.30
2022-11-07T01:04:21.293Z,1.47
2022-11-07T01:06:49.737Z,3.40
2022-11-07T01:09:21.427Z,2.03
2022-11-07T01:11:50.488Z,1.63
2022-11-07T01:14:21.427Z,1.80
2022-11-07T01:16:50.346Z,1.05
2022-11-07T01:19:20.110Z,3.33
2022-11-07T01:21:48.554Z,3.00
2022-11-07T01:24:17.116Z,1.07
2022-11-07T01:26:49.904Z,3.42
2022-11-07T01:29:19.517Z,3.05
2022-11-07T01:31:48.324Z,2.97
2022-11-07T01:34:17.886Z,1.70
2022-11-07T01:36:45.940Z,1.23
2022-11-07T01:39:14.155Z,1.98
2022-11-07T01:41:42.815Z,1.42
2022-11-07T01:44:10.797Z,1.33
2022-11-07T01:46:44.517Z,1.65
2022-11-07T01:49:24.481Z,2.50
2022-11-07T01:52:08.525Z,1.88
2022-11-07T01:54:45.010Z,2.78
2022-11-07T01:57:24.225Z,0.73
2022-11-07T01:59:56.147Z,1.23
2022-11-07T02:02:27.439Z,1.77
2022-11-07T02:04:59.875Z,2.03
2022-11-07T02:07:29.422Z,2.20
2022-11-07T02:09:57.719Z,2.45
2022-11-07T02:12:27.757Z,1.55
2022-11-07T02:14:57.126Z,2.42
2022-11-07T02:17:25.445Z,2.30
2022-11-07T02:19:56.702Z,2.63
2022-11-07T02:22:57.395Z,1.27
2022-11-07T02:25:26.053Z,1.98
2022-11-07T02:28:00.375Z,2.08
2022-11-07T02:30:33.979Z,1.58
2022-11-07T02:33:03.407Z,3.97
2022-11-07T02:35:43.943Z,2.53
2022-11-07T02:38:21.408Z,1.20
2022-11-07T02:40:58.617Z,1.25
2022-11-07T02:43:30.297Z,1.90
2022-11-07T02:46:02.820Z,1.73
2022-11-07T02:48:49.713Z,1.15
2022-11-07T02:51:18.398Z,2.15
2022-11-07T02:53:46.861Z,3.03
2022-11-07T02:56:15.046Z,1.42
2022-11-07T02:58:43.269Z,2.25
2022-11-07T03:01:12.510Z,2.13
2022-11-07T03:03:46.370Z,2.92
2022-11-07T03:08:48.318Z,2.03
2022-11-07T03:11:20.122Z,1.83
2022-11-07T03:13:50.367Z,1.90
2022-11-07T03:16:19.740Z,1.38
2022-11-07T03:18:47.851Z,1.98
2022-11-07T03:21:15.929Z,1.05
2022-11-07T03:23:44.015Z,3.53
2022-11-07T03:26:12.071Z,3.20
2022-11-07T03:28:40.178Z,2.53
2022-11-07T03:31:08.342Z,2.45
2022-11-07T03:33:36.465Z,3.88
2022-11-07T03:36:05.025Z,3.08
2022-11-07T03:38:33.110Z,2.55
2022-11-07T03:41:01.169Z,2.40
2022-11-07T03:43:29.269Z,2.55
2022-11-07T03:45:57.354Z,2.38
2022-11-07T03:48:25.440Z,1.50
2022-11-07T03:50:53.614Z,2.50
2022-11-07T03:53:25.512Z,2.28
2022-11-07T03:55:56.499Z,3.58
2022-11-07T03:58:26.862Z,1.63
2022-11-07T04:00:54.849Z,2.45
2022-11-07T04:03:22.936Z,2.45
2022-11-07T04:05:50.989Z,3.17
2022-11-07T04:08:19.339Z,3.53
2022-11-07T04:10:47.514Z,2.38
2022-11-07T04:13:34.106Z,2.53
2022-11-07T04:16:20.911Z,5.18
2022-11-07T04:18:48.988Z,2.55
2022-11-07T04:21:17.044Z,4.85
2022-11-07T04:23:45.148Z,5.60
2022-11-07T04:26:31.809Z,2.63
2022-11-07T04:28:59.917Z,4.15
2022-11-07T04:31:27.975Z,4.18
2022-11-07T04:33:56.084Z,4.45
2022-11-07T04:36:24.141Z,4.97
2022-11-07T04:38:52.259Z,4.13
2022-11-07T04:41:23.792Z,3.38
2022-11-07T04:43:52.129Z,4.28
2022-11-07T04:46:20.334Z,3.30
2022-11-07T04:48:48.423Z,3.45
2022-11-07T04:51:21.776Z,2.67
2022-11-07T04:53:49.871Z,2.25
2022-11-07T04:56:17.917Z,4.53
2022-11-07T04:58:46.121Z,3.22
2022-11-07T05:01:14.202Z,3.75
2022-11-07T05:03:42.465Z,2.28
2022-11-07T05:06:14.686Z,3.55
2022-11-07T05:08:42.794Z,2.55
2022-11-07T05:11:10.852Z,8.27
2022-11-07T05:13:38.963Z,5.67
2022-11-07T05:16:15.177Z,5.97
2022-11-07T05:18:43.622Z,5.32
2022-11-07T05:21:11.944Z,14.15
2022-11-07T05:23:40.145Z,9.93
2022-11-07T05:26:09.429Z,8.40
2022-11-07T05:28:39.784Z,5.60
2022-11-07T05:31:11.831Z,5.85
2022-11-07T05:33:40.032Z,3.60
2022-11-07T05:36:20.834Z,4.03
2022-11-07T05:38:53.358Z,3.80
2022-11-07T05:41:22.520Z,3.13
2022-11-07T05:43:50.626Z,4.80
2022-11-07T05:46:18.684Z,3.67
2022-11-07T05:48:46.890Z,4.30
2022-11-07T05:51:15.001Z,2.67
2022-11-07T05:53:43.178Z,3.17
2022-11-07T05:56:11.376Z,2.50
2022-11-07T05:58:39.582Z,2.40
2022-11-07T06:01:07.925Z,3.72
2022-11-07T06:03:36.014Z,3.13
2022-11-07T06:06:04.184Z,2.20
2022-11-07T06:08:32.295Z,4.78
2022-11-07T06:11:06.108Z,4.95
2022-11-07T06:16:02.394Z,4.43
2022-11-07T06:18:30.596Z,3.60
2022-11-07T06:21:02.159Z,3.80
2022-11-07T06:23:30.362Z,7.05
2022-11-07T06:25:58.471Z,3.05
2022-11-07T06:28:26.671Z,3.33
2022-11-07T06:30:59.168Z,2.33
2022-11-07T06:33:27.374Z,2.53
2022-11-07T06:35:55.812Z,2.97
2022-11-07T06:38:25.096Z,4.87
2022-11-07T06:40:53.177Z,3.77
2022-11-07T06:43:21.889Z,3.10
2022-11-07T06:45:49.942Z,6.45
2022-11-07T06:48:18.145Z,9.10
2022-11-07T06:50:47.547Z,2.40
2022-11-07T06:53:15.947Z,3.33
2022-11-07T06:55:44.565Z,5.00
2022-11-07T06:58:12.666Z,2.47
2022-11-07T07:00:40.803Z,3.17
2022-11-07T07:03:10.531Z,5.03
2022-11-07T07:05:38.827Z,1.70
2022-11-07T07:08:08.236Z,5.38
2022-11-07T07:10:40.848Z,5.22
2022-11-07T07:13:09.768Z,5.50
2022-11-07T07:15:50.360Z,3.47
2022-11-07T07:18:20.147Z,3.10
2022-11-07T07:20:50.337Z,5.18
2022-11-07T07:23:20.567Z,3.40
2022-11-07T07:25:49.454Z,3.10
2022-11-07T07:28:17.609Z,3.20
2022-11-07T07:30:51.594Z,5.57
2022-11-07T07:33:21.631Z,3.08
2022-11-07T07:35:49.750Z,6.83
2022-11-07T07:38:17.977Z,1.97
2022-11-07T07:40:47.872Z,3.28
2022-11-07T07:43:16.488Z,2.72
2022-11-07T07:45:44.872Z,2.85
2022-11-07T07:48:13.043Z,3.42
2022-11-07T07:50:41.129Z,3.65
2022-11-07T07:53:09.540Z,3.58
2022-11-07T07:55:37.679Z,3.05
2022-11-07T07:58:06.255Z,2.80
2022-11-07T08:00:34.931Z,4.28
2022-11-07T08:03:10.445Z,3.65
2022-11-07T08:05:39.700Z,3.17
2022-11-07T08:08:09.223Z,3.97
2022-11-07T08:10:42.443Z,2.05
2022-11-07T08:13:11.185Z,8.05
2022-11-07T08:15:39.229Z,2.85
2022-11-07T08:18:07.463Z,6.68
2022-11-07T08:20:35.513Z,4.65
2022-11-07T08:23:12.869Z,4.88
2022-11-07T08:25:58.835Z,3.03
2022-11-07T08:31:10.355Z,3.90
2022-11-07T08:33:39.069Z,3.50
2022-11-07T08:36:08.288Z,2.60
2022-11-07T08:38:36.998Z,3.47
2022-11-07T08:41:05.796Z,5.82
2022-11-07T08:43:33.976Z,4.03
2022-11-07T08:46:02.090Z,5.00
2022-11-07T08:48:30.296Z,3.38
2022-11-07T08:50:59.464Z,8.38
2022-11-07T08:53:28.148Z,5.72
2022-11-07T08:56:10.469Z,4.22
2022-11-07T08:58:38.940Z,7.28
2022-11-07T09:01:10.532Z,7.47
2022-11-07T09:03:52.907Z,3.10
2022-11-07T09:06:24.885Z,5.72
2022-11-07T09:08:53.080Z,4.85
2022-11-07T09:11:22.277Z,3.28
2022-11-07T09:13:50.446Z,5.65
2022-11-07T09:16:19.129Z,3.00
2022-11-07T09:18:49.640Z,3.33
2022-11-07T09:21:22.369Z,2.92
2022-11-07T09:23:52.165Z,3.47
2022-11-07T09:26:20.700Z,5.65
2022-11-07T09:28:52.379Z,9.05
2022-11-07T09:31:22.507Z,5.60
2022-11-07T09:33:50.609Z,4.75
2022-11-07T09:36:18.787Z,5.22
2022-11-07T09:38:47.253Z,5.45
2022-11-07T09:41:39.432Z,5.30
2022-11-07T09:44:23.463Z,2.42
2022-11-07T09:47:08.141Z,2.85
2022-11-07T09:50:00.799Z,4.65
2022-11-07T09:52:35.963Z,19.48
2022-11-07T09:55:26.518Z,10.73
2022-11-07T09:58:00.929Z,6.07
2022-11-07T10:00:32.250Z,4.95
2022-11-07T10:03:04.652Z,5.50
2022-11-07T10:06:03.336Z,4.32
2022-11-07T10:09:04.925Z,3.53
2022-11-07T10:11:50.981Z,7.13
2022-11-07T10:14:55.334Z,5.38
2022-11-07T10:17:44.388Z,4.38
2022-11-07T10:20:47.630Z,3.40
2022-11-07T10:23:36.232Z,2.97
2022-11-07T10:26:16.196Z,7.00
2022-11-07T10:29:17.758Z,4.25
2022-11-07T10:32:30.122Z,2.88
2022-11-07T10:35:13.082Z,3.17
2022-11-07T10:37:41.192Z,4.70
2022-11-07T10:40:21.850Z,3.58
2022-11-07T10:42:51.370Z,4.63
2022-11-07T10:45:19.724Z,5.32
2022-11-07T10:48:05.576Z,2.25
2022-11-07T10:50:33.979Z,3.65
2022-11-07T10:53:09.991Z,6.43
2022-11-07T10:55:48.026Z,4.18
2022-11-07T10:58:30.265Z,3.45
2022-11-07T11:01:08.317Z,3.45
2022-11-07T11:03:45.414Z,4.22
2022-11-07T11:06:19.714Z,5.65
2022-11-07T11:08:50.800Z,4.32
2022-11-07T11:11:21.882Z,3.85
2022-11-07T11:14:00.666Z,2.72
2022-11-07T11:16:33.882Z,3.55
2022-11-07T11:19:03.525Z,1.55
2022-11-07T11:21:44.337Z,1.92
2022-11-07T11:24:34.371Z,1.35
2022-11-07T11:27:17.840Z,4.00
2022-11-07T11:30:07.515Z,1.55
2022-11-07T11:32:48.660Z,3.00
2022-11-07T11:35:41.618Z,4.13
2022-11-07T11:38:21.905Z,2.87
2022-11-07T11:41:04.728Z,4.03
2022-11-07T11:43:51.696Z,2.88
2022-11-07T11:46:58.279Z,2.40
2022-11-07T11:49:35.864Z,8.73
2022-11-07T11:52:24.477Z,5.15
2022-11-07T11:54:56.242Z,1.90
2022-11-07T11:57:41.505Z,3.58
2022-11-07T12:00:22.886Z,3.30
2022-11-07T12:03:34.555Z,3.03
2022-11-07T12:06:20.273Z,3.13
2022-11-07T12:09:18.152Z,2.70
2022-11-07T12:12:30.346Z,2.25
2022-11-07T12:15:37.415Z,2.47
2022-11-07T12:18:19.296Z,2.45
2022-11-07T12:21:12.470Z,4.22
2022-11-07T12:23:46.319Z,2.88
2022-11-07T12:26:20.396Z,3.88
2022-11-07T12:29:24.226Z,3.17
2022-11-07T12:32:38.751Z,2.47
2022-11-07T12:35:40.673Z,7.28
2022-11-07T12:38:57.868Z,3.10
2022-11-07T12:42:08.208Z,1.77
2022-11-07T12:44:48.019Z,3.08
2022-11-07T12:47:37.693Z,2.45
2022-11-07T12:50:32.888Z,2.15
2022-11-07T12:53:02.891Z,3.88
2022-11-07T12:55:42.272Z,3.95
2022-11-07T12:58:25.822Z,4.70
2022-11-07T13:00:54.526Z,4.55
2022-11-07T13:03:44.793Z,2.38
2022-11-07T13:06:36.983Z,3.35
2022-11-07T13:09:33.761Z,5.68
2022-11-07T13:12:26.080Z,3.08
2022-11-07T13:14:54.750Z,3.67
2022-11-07T13:17:27.812Z,2.67
2022-11-07T13:20:05.800Z,3.83
2022-11-07T13:22:37.135Z,2.90
2022-11-07T13:25:17.617Z,2.08
2022-11-07T13:27:57.894Z,4.95
2022-11-07T13:30:35.465Z,2.28
2022-11-07T13:33:05.706Z,2.67
2022-11-07T13:35:39.189Z,2.15
2022-11-07T13:38:26.095Z,4.75
2022-11-07T13:41:04.746Z,1.92
2022-11-07T13:43:58.992Z,1.70
2022-11-07T13:49:26.715Z,3.72
2022-11-07T13:52:02.844Z,3.28
2022-11-07T13:54:57.314Z,5.80
2022-11-07T13:57:42.827Z,4.25
2022-11-07T14:00:15.510Z,2.15
2022-11-07T14:02:56.353Z,1.43
2022-11-07T14:05:36.800Z,4.20
2022-11-07T14:08:39.815Z,2.63
2022-11-07T14:11:21.814Z,3.88
2022-11-07T14:13:54.217Z,3.33
2022-11-07T14:16:32.738Z,3.08
2022-11-07T14:19:07.311Z,2.88
2022-11-07T14:21:37.440Z,0.85
2022-11-07T14:24:25.088Z,1.80
2022-11-07T14:27:03.939Z,1.95
2022-11-07T14:29:32.747Z,3.75
2022-11-07T14:32:06.953Z,2.17
2022-11-07T14:34:36.588Z,5.13
2022-11-07T14:37:07.910Z,6.60
2022-11-07T14:39:39.114Z,3.03
2022-11-07T14:42:08.394Z,5.82
2022-11-07T14:44:54.044Z,6.03
2022-11-07T14:47:33.023Z,2.35
2022-11-07T14:50:02.149Z,4.07
2022-11-07T14:52:39.975Z,4.95
2022-11-07T14:55:29.408Z,2.45
2022-11-07T14:58:03.986Z,1.83
2022-11-07T15:00:33.263Z,4.07
2022-11-07T15:03:02.431Z,2.42
2022-11-07T15:05:43.227Z,5.53
2022-11-07T15:08:31.832Z,4.72
2022-11-07T15:11:22.356Z,2.65
2022-11-07T15:13:51.387Z,2.85
2022-11-07T15:16:22.841Z,2.88
2022-11-07T15:19:00.042Z,0.98
2022-11-07T15:21:28.608Z,6.25
2022-11-07T15:23:58.249Z,5.25
2022-11-07T15:26:33.186Z,3.33
2022-11-07T15:29:22.005Z,2.30
2022-11-07T15:31:50.115Z,1.83
2022-11-07T15:34:33.711Z,1.88
2022-11-07T15:37:12.544Z,3.00
2022-11-07T15:39:40.611Z,1.85
2022-11-07T15:42:08.707Z,3.55
2022-11-07T15:44:36.783Z,6.60
2022-11-07T15:47:06.791Z,4.07
2022-11-07T15:49:35.580Z,7.13
2022-11-07T15:52:03.785Z,5.13
2022-11-07T15:54:31.865Z,5.88
2022-11-07T15:57:04.163Z,6.57
2022-11-07T15:59:37.510Z,5.93
2022-11-07T16:02:11.388Z,11.43
2022-11-07T16:04:39.901Z,6.00
2022-11-07T16:07:20.486Z,6.75
2022-11-07T16:09:49.000Z,9.70
2022-11-07T16:12:19.407Z,5.55
2022-11-07T16:14:47.493Z,7.45
2022-11-07T16:17:18.234Z,9.98
2022-11-07T16:19:46.901Z,13.13
2022-11-07T16:22:16.554Z,16.85
2022-11-07T16:24:44.615Z,13.77
2022-11-07T16:27:18.112Z,16.27
2022-11-07T16:29:46.658Z,9.77
2022-11-07T16:32:18.527Z,9.52
2022-11-07T16:34:47.761Z,10.18
2022-11-07T16:37:15.834Z,8.43
2022-11-07T16:39:44.536Z,6.70
2022-11-07T16:42:16.375Z,9.73
2022-11-07T16:44:44.615Z,9.45
2022-11-07T16:47:16.682Z,7.10
2022-11-07T16:49:45.494Z,5.07
2022-11-07T16:52:20.539Z,5.32
2022-11-07T16:54:48.845Z,2.95
2022-11-07T16:57:18.746Z,3.15
2022-11-07T16:59:47.183Z,4.32
2022-11-07T17:02:24.818Z,5.22
2022-11-07T17:04:54.382Z,3.03
2022-11-07T17:07:24.037Z,3.85
2022-11-07T17:09:52.337Z,5.25
2022-11-07T17:12:23.662Z,5.47
2022-11-07T17:14:52.976Z,5.45
2022-11-07T17:17:21.387Z,5.95
2022-11-07T17:19:49.789Z,7.30
2022-11-07T17:22:18.163Z,8.05
2022-11-07T17:24:46.376Z,9.50
2022-11-07T17:27:23.925Z,9.13
2022-11-07T17:29:53.980Z,9.98
2022-11-07T17:32:22.242Z,14.30
2022-11-07T17:35:10.922Z,9.10
2022-11-07T17:37:39.896Z,6.97
2022-11-07T17:40:14.497Z,5.82
2022-11-07T17:42:42.649Z,5.40
2022-11-07T17:45:11.931Z,4.30
2022-11-07T17:47:40.504Z,6.53
2022-11-07T17:50:15.902Z,3.97
2022-11-07T17:52:43.992Z,6.00
2022-11-07T17:55:12.421Z,6.95
2022-11-07T17:57:40.983Z,6.55
2022-11-07T18:00:17.963Z,7.90
2022-11-07T18:02:48.542Z,5.55
2022-11-07T18:05:20.354Z,7.15
2022-11-07T18:07:48.449Z,5.10
2022-11-07T18:10:17.500Z,6.18
2022-11-07T18:12:45.574Z,6.32
2022-11-07T18:15:13.781Z,3.55
2022-11-07T18:17:42.333Z,4.28
2022-11-07T18:20:11.126Z,3.22
2022-11-07T18:22:39.333Z,6.03
2022-11-07T18:25:08.741Z,3.80
2022-11-07T18:27:37.306Z,4.10
2022-11-07T18:30:07.191Z,5.50
2022-11-07T18:32:36.791Z,12.63
2022-11-07T18:35:06.417Z,3.63
2022-11-07T18:37:34.914Z,3.15
2022-11-07T18:40:03.108Z,4.25
2022-11-07T18:42:31.309Z,4.60
2022-11-07T18:44:59.390Z,3.33
2022-11-07T18:47:28.805Z,3.67
2022-11-07T18:49:57.593Z,3.80
2022-11-07T18:52:26.053Z,5.45
2022-11-07T18:54:54.365Z,6.10
2022-11-07T18:57:22.459Z,4.57
2022-11-07T18:59:50.645Z,3.38
2022-11-07T19:02:18.765Z,3.38
2022-11-07T19:04:46.944Z,5.75
2022-11-07T19:07:15.011Z,3.67
2022-11-07T19:09:43.093Z,3.80
2022-11-07T19:12:11.189Z,4.32
2022-11-07T19:14:39.379Z,7.93
2022-11-07T19:17:07.476Z,5.00
2022-11-07T19:19:36.503Z,5.43
2022-11-07T19:22:05.785Z,4.00
2022-11-07T19:24:34.723Z,4.20
2022-11-07T19:27:02.806Z,4.47
2022-11-07T19:29:30.953Z,6.18
2022-11-07T19:31:58.966Z,6.13
2022-11-07T19:34:27.180Z,2.92
2022-11-07T19:36:55.255Z,3.65
2022-11-07T19:39:23.442Z,3.38
2022-11-07T19:41:51.535Z,4.93
2022-11-07T19:44:19.734Z,3.78
2022-11-07T19:46:48.064Z,5.07
2022-11-07T19:49:16.134Z,6.00
2022-11-07T19:51:44.216Z,3.13
2022-11-07T19:54:12.656Z,4.55
2022-11-07T19:56:40.757Z,6.38
2022-11-07T19:59:10.261Z,5.35
2022-11-07T20:01:39.543Z,3.83
2022-11-07T20:04:08.915Z,4.32
2022-11-07T20:06:39.083Z,4.50
2022-11-07T20:09:09.550Z,6.32
2022-11-07T20:11:38.142Z,4.80
2022-11-07T20:14:06.556Z,4.50
2022-11-07T20:16:37.398Z,3.33
2022-11-07T20:19:06.083Z,4.80
2022-11-07T20:21:34.673Z,5.30
2022-11-07T20:24:05.501Z,5.88
2022-11-07T20:26:33.577Z,4.80
2022-11-07T20:29:02.132Z,4.53
2022-11-07T20:31:33.829Z,4.25
2022-11-07T20:34:05.267Z,6.90
2022-11-07T20:36:34.658Z,3.13
2022-11-07T20:39:03.821Z,6.18
2022-11-07T20:41:32.755Z,2.95
2022-11-07T20:44:07.546Z,5.45
2022-11-07T20:46:39.227Z,4.03
2022-11-07T20:49:12.119Z,7.50
2022-11-07T20:51:41.273Z,5.83
2022-11-07T20:54:16.316Z,4.10
2022-11-07T20:56:44.411Z,4.07
2022-11-07T20:59:12.972Z,3.80
2022-11-07T21:01:41.245Z,2.35
2022-11-07T21:04:14.066Z,4.57
2022-11-07T21:06:42.727Z,4.05
2022-11-07T21:09:11.294Z,4.93
2022-11-07T21:11:39.625Z,3.38
2022-11-07T21:14:08.062Z,3.40
2022-11-07T21:16:36.380Z,7.68
2022-11-07T21:19:05.623Z,4.13
2022-11-07T21:21:33.822Z,3.03
2022-11-07T21:24:02.676Z,3.47
2022-11-07T21:26:35.688Z,6.18
2022-11-07T21:29:06.881Z,4.95
2022-11-07T21:31:37.124Z,3.08
2022-11-07T21:34:09.273Z,2.35
2022-11-07T21:36:37.739Z,3.33
2022-11-07T21:39:07.604Z,2.97
2022-11-07T21:41:36.289Z,6.47
2022-11-07T21:44:04.483Z,3.90
2022-11-07T21:46:34.502Z,2.33
2022-11-07T21:49:04.985Z,2.70
2022-11-07T21:51:34.749Z,4.38
2022-11-07T21:54:04.735Z,17.77
2022-11-07T21:56:37.017Z,21.27
2022-11-07T21:59:09.900Z,9.00
2022-11-07T22:01:39.618Z,5.83
2022-11-07T22:04:12.520Z,3.67
2022-11-07T22:06:44.599Z,4.07
2022-11-07T22:09:18.322Z,3.75
2022-11-07T22:11:47.239Z,4.57
2022-11-07T22:14:19.167Z,5.03
2022-11-07T22:16:48.672Z,3.03
2022-11-07T22:19:18.341Z,4.07
2022-11-07T22:21:46.519Z,4.43
2022-11-07T22:24:14.601Z,3.10
2022-11-07T22:26:43.180Z,3.55
2022-11-07T22:29:11.245Z,5.25
2022-11-07T22:31:39.346Z,7.90
2022-11-07T22:34:07.412Z,4.90
2022-11-07T22:36:35.633Z,6.17
2022-11-07T22:39:03.830Z,3.47
2022-11-07T22:41:31.912Z,4.45
2022-11-07T22:44:00.110Z,3.93
2022-11-07T22:46:31.078Z,3.33
2022-11-07T22:49:00.141Z,3.40
2022-11-07T22:51:34.560Z,4.17
2022-11-07T22:54:06.835Z,4.25
2022-11-07T22:56:36.604Z,5.77
2022-11-07T22:59:05.996Z,6.03
2022-11-07T23:01:38.482Z,3.33
2022-11-07T23:04:08.641Z,4.00
2022-11-07T23:06:36.981Z,4.28
2022-11-07T23:09:05.645Z,3.50
2022-11-07T23:11:51.341Z,5.00
2022-11-07T23:14:21.744Z,4.10
2022-11-07T23:16:53.186Z,3.07
2022-11-07T23:19:24.375Z,3.47
2022-11-07T23:21:54.997Z,5.73
2022-11-07T23:24:23.663Z,5.20
2022-11-07T23:26:51.874Z,5.10
2022-11-07T23:29:24.196Z,5.23
2022-11-07T23:31:53.068Z,3.25
2022-11-07T23:34:22.361Z,4.55
2022-11-07T23:36:51.889Z,3.08
2022-11-07T23:39:22.859Z,4.47
2022-11-07T23:41:51.064Z,3.50
2022-11-07T23:44:19.119Z,5.03
2022-11-07T23:47:06.420Z,3.42
2022-11-07T23:49:54.406Z,3.20
2022-11-07T23:52:22.628Z,4.13
2022-11-07T23:55:09.181Z,3.83
2022-11-07T23:57:57.692Z,5.05
